createdAt,value
2016-11-24T00:00:16.598Z,24.47
2016-11-24T00:01:16.925Z,24.5
2016-11-24T00:02:16.924Z,24.45
2016-11-24T00:03:16.622Z,24.42
2016-11-24T00:04:16.628Z,24.39
2016-11-24T00:05:16.634Z,24.37
2016-11-24T00:06:16.655Z,24.39
2016-11-24T00:07:16.963Z,24.47
2016-11-24T00:08:16.662Z,24.49
2016-11-24T00:09:16.665Z,24.35
2016-11-24T00:10:17.773Z,24.39
2016-11-24T00:11:16.681Z,24.37
2016-11-24T00:12:16.687Z,24.42
2016-11-24T00:13:16.692Z,24.4
2016-11-24T00:14:17.014Z,24.35
2016-11-24T00:15:16.443Z,24.37
2016-11-24T00:16:17.028Z,24.45
2016-11-24T00:17:16.780Z,24.47
2016-11-24T00:18:16.830Z,24.42
2016-11-24T00:19:16.936Z,24.4
2016-11-24T00:20:16.745Z,24.47
2016-11-24T00:21:18.369Z,24.35
2016-11-24T00:22:16.454Z,24.34
2016-11-24T00:23:16.817Z,24.42
2016-11-24T00:24:16.773Z,24.32
2016-11-24T00:25:16.779Z,24.35
2016-11-24T00:26:16.788Z,24.39
2016-11-24T00:27:17.116Z,24.4
2016-11-24T00:28:16.807Z,24.4
2016-11-24T00:29:16.813Z,24.4
2016-11-24T00:30:17.129Z,24.42
2016-11-24T00:31:16.833Z,24.37
2016-11-24T00:32:17.574Z,24.35
2016-11-24T00:33:17.157Z,24.39
2016-11-24T00:34:16.914Z,24.4
2016-11-24T00:35:17.167Z,24.4
2016-11-24T00:36:16.865Z,24.37
2016-11-24T00:37:16.558Z,24.45
2016-11-24T00:38:17.186Z,24.49
2016-11-24T00:39:16.888Z,24.43
2016-11-24T00:40:17.206Z,24.42
2016-11-24T00:41:16.901Z,24.4
2016-11-24T00:42:16.904Z,24.35
2016-11-24T00:43:18.049Z,24.35
2016-11-24T00:44:17.331Z,24.43
2016-11-24T00:45:16.933Z,24.42
2016-11-24T00:46:17.248Z,24.47
2016-11-24T00:47:16.941Z,24.35
2016-11-24T00:48:16.945Z,24.34
2016-11-24T00:49:16.643Z,24.37
2016-11-24T00:50:17.379Z,24.37
2016-11-24T00:51:16.660Z,24.35
2016-11-24T00:52:17.336Z,24.34
2016-11-24T00:53:17.347Z,24.4
2016-11-24T00:54:17.604Z,24.37
2016-11-24T00:55:17.313Z,24.37
2016-11-24T00:56:17.319Z,24.35
2016-11-24T00:57:17.014Z,24.35
2016-11-24T00:58:17.019Z,24.35
2016-11-24T00:59:17.028Z,24.39
2016-11-24T01:00:16.724Z,24.4
2016-11-24T01:01:17.092Z,24.39
2016-11-24T01:02:17.102Z,24.42
2016-11-24T01:03:17.378Z,24.39
2016-11-24T01:04:16.809Z,24.42
2016-11-24T01:05:17.424Z,24.46
2016-11-24T01:06:16.770Z,24.46
2016-11-24T01:07:18.711Z,24.43
2016-11-24T01:08:16.781Z,24.45
2016-11-24T01:09:17.103Z,24.4
2016-11-24T01:10:17.108Z,24.37
2016-11-24T01:11:17.482Z,24.46
2016-11-24T01:12:17.176Z,24.42
2016-11-24T01:13:17.491Z,24.39
2016-11-24T01:14:17.452Z,24.4
2016-11-24T01:15:17.457Z,24.39
2016-11-24T01:16:17.182Z,24.42
2016-11-24T01:17:17.218Z,24.39
2016-11-24T01:18:17.974Z,24.37
2016-11-24T01:19:17.488Z,24.37
2016-11-24T01:20:17.545Z,24.3
2016-11-24T01:21:17.199Z,24.37
2016-11-24T01:22:17.542Z,24.42
2016-11-24T01:23:17.238Z,24.32
2016-11-24T01:24:17.525Z,24.28
2016-11-24T01:25:17.275Z,24.35
2016-11-24T01:26:17.279Z,24.32
2016-11-24T01:27:16.970Z,24.27
2016-11-24T01:28:17.292Z,24.24
2016-11-24T01:29:18.149Z,24.28
2016-11-24T01:30:17.624Z,24.2
2016-11-24T01:31:17.264Z,24.2
2016-11-24T01:32:17.589Z,24.3
2016-11-24T01:33:16.967Z,24.27
2016-11-24T01:34:17.285Z,24.28
2016-11-24T01:35:17.608Z,24.3
2016-11-24T01:36:17.299Z,24.32
2016-11-24T01:37:17.335Z,24.31
2016-11-24T01:38:17.634Z,24.34
2016-11-24T01:39:17.644Z,24.25
2016-11-24T01:40:17.792Z,24.32
2016-11-24T01:41:17.346Z,24.32
2016-11-24T01:42:17.028Z,24.22
2016-11-24T01:43:17.355Z,24.28
2016-11-24T01:44:17.350Z,24.22
2016-11-24T01:45:17.735Z,24.32
2016-11-24T01:46:17.689Z,24.35
2016-11-24T01:47:17.379Z,24.27
2016-11-24T01:48:17.696Z,24.21
2016-11-24T01:49:17.709Z,24.3
2016-11-24T01:50:17.403Z,24.24
2016-11-24T01:51:17.759Z,24.25
2016-11-24T01:52:17.416Z,24.27
2016-11-24T01:53:19.133Z,24.21
2016-11-24T01:54:17.482Z,24.24
2016-11-24T01:55:17.439Z,24.27
2016-11-24T01:56:17.132Z,24.21
2016-11-24T01:57:17.769Z,24.28
2016-11-24T01:58:17.462Z,24.2
2016-11-24T01:59:17.537Z,24.31
2016-11-24T02:00:17.626Z,24.27
2016-11-24T02:01:17.483Z,24.2
2016-11-24T02:02:17.232Z,24.22
2016-11-24T02:03:17.860Z,24.22
2016-11-24T02:04:18.821Z,24.22
2016-11-24T02:05:17.514Z,24.22
2016-11-24T02:06:17.668Z,24.2
2016-11-24T02:07:17.836Z,24.24
2016-11-24T02:08:17.532Z,24.21
2016-11-24T02:09:17.539Z,24.25
2016-11-24T02:10:17.547Z,24.21
2016-11-24T02:11:17.556Z,24.21
2016-11-24T02:12:17.871Z,24.22
2016-11-24T02:13:17.310Z,24.2
2016-11-24T02:14:17.578Z,24.25
2016-11-24T02:15:18.548Z,24.25
2016-11-24T02:16:17.592Z,24.25
2016-11-24T02:17:17.909Z,24.22
2016-11-24T02:18:17.605Z,24.22
2016-11-24T02:19:17.302Z,24.2
2016-11-24T02:20:17.931Z,24.21
2016-11-24T02:21:17.389Z,24.27
2016-11-24T02:22:17.330Z,24.24
2016-11-24T02:23:17.328Z,24.21
2016-11-24T02:24:17.651Z,24.27
2016-11-24T02:25:17.342Z,24.24
2016-11-24T02:26:18.462Z,24.34
2016-11-24T02:27:17.984Z,24.34
2016-11-24T02:28:17.678Z,24.27
2016-11-24T02:29:17.689Z,24.32
2016-11-24T02:30:17.694Z,24.35
2016-11-24T02:31:17.750Z,24.31
2016-11-24T02:32:17.709Z,24.21
2016-11-24T02:33:17.404Z,24.21
2016-11-24T02:34:17.823Z,24.3
2016-11-24T02:35:18.042Z,24.32
2016-11-24T02:36:17.740Z,24.28
2016-11-24T02:37:18.480Z,24.3
2016-11-24T02:38:17.752Z,24.3
2016-11-24T02:39:17.808Z,24.28
2016-11-24T02:40:17.794Z,24.27
2016-11-24T02:41:17.774Z,24.31
2016-11-24T02:42:17.831Z,24.31
2016-11-24T02:43:17.786Z,24.28
2016-11-24T02:44:17.799Z,24.27
2016-11-24T02:45:17.804Z,24.25
2016-11-24T02:46:17.857Z,24.22
2016-11-24T02:47:17.505Z,24.18
2016-11-24T02:48:18.066Z,24.22
2016-11-24T02:49:17.828Z,24.18
2016-11-24T02:50:17.526Z,24.16
2016-11-24T02:51:17.535Z,24.21
2016-11-24T02:52:18.515Z,24.2
2016-11-24T02:53:18.173Z,24.16
2016-11-24T02:54:18.187Z,24.15
2016-11-24T02:55:17.876Z,24.12
2016-11-24T02:56:18.248Z,24.15
2016-11-24T02:57:17.890Z,24.2
2016-11-24T02:58:17.634Z,24.13
2016-11-24T02:59:17.961Z,24.16
2016-11-24T03:00:17.911Z,24.2
2016-11-24T03:01:19.593Z,24.18
2016-11-24T03:02:18.243Z,24.16
2016-11-24T03:03:18.332Z,24.15
2016-11-24T03:04:17.628Z,24.21
2016-11-24T03:05:17.973Z,24.13
2016-11-24T03:06:17.959Z,24.22
2016-11-24T03:07:17.962Z,24.1
2016-11-24T03:08:18.283Z,24.16
2016-11-24T03:09:18.288Z,24.16
2016-11-24T03:10:17.983Z,24.1
2016-11-24T03:11:18.303Z,24.13
2016-11-24T03:12:17.683Z,24.1
2016-11-24T03:13:18.004Z,24.12
2016-11-24T03:14:18.300Z,24.2
2016-11-24T03:15:17.708Z,24.2
2016-11-24T03:16:17.711Z,24.21
2016-11-24T03:17:18.085Z,24.16
2016-11-24T03:18:17.726Z,24.18
2016-11-24T03:19:18.048Z,24.18
2016-11-24T03:20:18.057Z,24.1
2016-11-24T03:21:17.799Z,24.13
2016-11-24T03:22:17.758Z,24.18
2016-11-24T03:23:19.379Z,24.05
2016-11-24T03:24:18.400Z,24.16
2016-11-24T03:25:18.406Z,24.13
2016-11-24T03:26:18.099Z,24.18
2016-11-24T03:27:18.101Z,24.18
2016-11-24T03:28:17.800Z,24.15
2016-11-24T03:29:18.469Z,24.13
2016-11-24T03:30:18.451Z,24.06
2016-11-24T03:31:18.449Z,24.15
2016-11-24T03:32:18.140Z,24.15
2016-11-24T03:33:18.468Z,24.16
2016-11-24T03:34:19.466Z,24.08
2016-11-24T03:35:18.527Z,24.09
2016-11-24T03:36:18.309Z,24.09
2016-11-24T03:37:17.861Z,24.05
2016-11-24T03:38:18.185Z,24.05
2016-11-24T03:39:18.602Z,24.18
2016-11-24T03:40:17.882Z,24.13
2016-11-24T03:41:17.894Z,24.16
2016-11-24T03:42:18.217Z,24.06
2016-11-24T03:43:18.272Z,24.18
2016-11-24T03:44:18.584Z,24.13
2016-11-24T03:45:19.447Z,24.2
2016-11-24T03:46:18.242Z,24.13
2016-11-24T03:47:18.567Z,24.1
2016-11-24T03:48:18.255Z,24.13
2016-11-24T03:49:19.386Z,24.12
2016-11-24T03:50:18.582Z,24.18
2016-11-24T03:51:18.638Z,24.18
2016-11-24T03:52:18.281Z,24.18
2016-11-24T03:53:18.609Z,24.16
2016-11-24T03:54:18.663Z,24.2
2016-11-24T03:55:18.617Z,24.16
2016-11-24T03:56:18.629Z,24.09
2016-11-24T03:57:18.687Z,24.25
2016-11-24T03:58:18.331Z,24.25
2016-11-24T03:59:18.021Z,24.24
2016-11-24T04:00:19.593Z,24.24
2016-11-24T04:01:18.351Z,24.22
2016-11-24T04:02:18.673Z,24.22
2016-11-24T04:03:18.684Z,24.16
2016-11-24T04:04:18.094Z,24.21
2016-11-24T04:05:18.066Z,24.24
2016-11-24T04:06:18.387Z,24.22
2016-11-24T04:07:18.080Z,24.27
2016-11-24T04:08:18.763Z,24.22
2016-11-24T04:09:18.415Z,24.2
2016-11-24T04:10:18.735Z,24.22
2016-11-24T04:11:19.374Z,24.21
2016-11-24T04:12:18.745Z,24.22
2016-11-24T04:13:18.800Z,24.2
2016-11-24T04:14:19.358Z,24.18
2016-11-24T04:15:18.762Z,24.16
2016-11-24T04:16:18.458Z,24.15
2016-11-24T04:17:18.470Z,24.09
2016-11-24T04:18:18.472Z,24.12
2016-11-24T04:19:18.479Z,24.16
2016-11-24T04:20:18.493Z,24.06
2016-11-24T04:21:18.494Z,24.16
2016-11-24T04:22:19.066Z,24.1
2016-11-24T04:23:18.507Z,24.12
2016-11-24T04:24:18.520Z,24.08
2016-11-24T04:25:18.525Z,24.1
2016-11-24T04:26:18.842Z,24.13
2016-11-24T04:27:18.226Z,24.16
2016-11-24T04:28:18.562Z,24.15
2016-11-24T04:29:18.552Z,23.95
2016-11-24T04:30:18.886Z,24.09
2016-11-24T04:31:18.612Z,24.08
2016-11-24T04:32:18.574Z,24.12
2016-11-24T04:33:18.729Z,24.05
2016-11-24T04:34:18.902Z,24.12
2016-11-24T04:35:19.881Z,24.12
2016-11-24T04:36:18.912Z,24.09
2016-11-24T04:37:18.348Z,24.13
2016-11-24T04:38:18.301Z,24.06
2016-11-24T04:39:18.311Z,24
2016-11-24T04:40:18.634Z,24.08
2016-11-24T04:41:18.638Z,24.08
2016-11-24T04:42:18.965Z,24.03
2016-11-24T04:43:18.654Z,24.13
2016-11-24T04:44:18.972Z,24.1
2016-11-24T04:45:18.412Z,24.02
2016-11-24T04:46:20.186Z,24
2016-11-24T04:47:18.733Z,24.08
2016-11-24T04:48:18.380Z,24.1
2016-11-24T04:49:18.384Z,24.09
2016-11-24T04:50:18.707Z,24.09
2016-11-24T04:51:18.810Z,24.1
2016-11-24T04:52:18.405Z,24.02
2016-11-24T04:53:19.089Z,24
2016-11-24T04:54:18.736Z,24.12
2016-11-24T04:55:18.737Z,24.08
2016-11-24T04:56:18.745Z,24.08
2016-11-24T04:57:19.852Z,24.09
2016-11-24T04:58:18.758Z,24.12
2016-11-24T04:59:19.081Z,24.06
2016-11-24T05:00:19.084Z,24.06
2016-11-24T05:01:19.094Z,24.13
2016-11-24T05:02:18.789Z,24.2
2016-11-24T05:03:18.848Z,24.1
2016-11-24T05:04:18.849Z,24.08
2016-11-24T05:05:19.120Z,24.06
2016-11-24T05:06:19.178Z,24.09
2016-11-24T05:07:18.518Z,24.1
2016-11-24T05:08:19.777Z,24.05
2016-11-24T05:09:18.527Z,23.98
2016-11-24T05:10:19.207Z,24.13
2016-11-24T05:11:18.860Z,24.1
2016-11-24T05:12:19.186Z,24.12
2016-11-24T05:13:18.868Z,24.06
2016-11-24T05:14:20.514Z,24.12
2016-11-24T05:15:19.191Z,24.15
2016-11-24T05:16:19.198Z,24.13
2016-11-24T05:17:18.581Z,24.1
2016-11-24T05:18:19.219Z,24.13
2016-11-24T05:19:19.553Z,24.13
2016-11-24T05:20:18.969Z,24.16
2016-11-24T05:21:19.235Z,24.2
2016-11-24T05:22:19.242Z,24.06
2016-11-24T05:23:18.938Z,24.16
2016-11-24T05:24:18.628Z,24.18
2016-11-24T05:25:19.263Z,24.21
2016-11-24T05:26:18.997Z,24.08
2016-11-24T05:27:18.964Z,24.09
2016-11-24T05:28:19.286Z,24.2
2016-11-24T05:29:19.323Z,24.18
2016-11-24T05:30:19.307Z,24.21
2016-11-24T05:31:18.712Z,24.15
2016-11-24T05:32:20.412Z,24.16
2016-11-24T05:33:19.007Z,24.03
2016-11-24T05:34:19.346Z,24.2
2016-11-24T05:35:19.019Z,24.1
2016-11-24T05:36:19.391Z,24.18
2016-11-24T05:37:19.037Z,24.12
2016-11-24T05:38:19.046Z,24.13
2016-11-24T05:39:19.051Z,24.09
2016-11-24T05:40:19.088Z,24.08
2016-11-24T05:41:19.066Z,24.09
2016-11-24T05:42:19.074Z,24.13
2016-11-24T05:43:19.945Z,24.06
2016-11-24T05:44:19.088Z,24.06
2016-11-24T05:45:18.780Z,24.03
2016-11-24T05:46:19.107Z,24.08
2016-11-24T05:47:18.803Z,24.12
2016-11-24T05:48:19.435Z,24
2016-11-24T05:49:19.122Z,24.03
2016-11-24T05:50:19.439Z,24.03
2016-11-24T05:51:19.496Z,24.1
2016-11-24T05:52:18.883Z,24.12
2016-11-24T05:53:19.148Z,24.08
2016-11-24T05:54:19.918Z,24.08
2016-11-24T05:55:18.857Z,24
2016-11-24T05:56:19.483Z,24.03
2016-11-24T05:57:19.225Z,24.02
2016-11-24T05:58:19.550Z,24.09
2016-11-24T05:59:19.195Z,24.08
2016-11-24T06:00:19.511Z,24.02
2016-11-24T06:01:18.893Z,24.03
2016-11-24T06:02:19.263Z,24.08
2016-11-24T06:03:20.159Z,24.08
2016-11-24T06:04:19.541Z,24
2016-11-24T06:05:19.799Z,24.05
2016-11-24T06:06:19.302Z,24.08
2016-11-24T06:07:19.263Z,24.05
2016-11-24T06:08:19.570Z,24.12
2016-11-24T06:09:19.001Z,24.05
2016-11-24T06:10:19.271Z,24.06
2016-11-24T06:11:19.278Z,24.09
2016-11-24T06:12:19.284Z,24.05
2016-11-24T06:13:18.974Z,23.98
2016-11-24T06:14:34.278Z,24.1
2016-11-24T06:15:19.314Z,24.06
2016-11-24T06:16:19.713Z,24.08
2016-11-24T06:17:19.321Z,24.08
2016-11-24T06:18:20.969Z,24.03
2016-11-24T06:19:19.334Z,23.93
2016-11-24T06:20:19.390Z,24.06
2016-11-24T06:21:19.114Z,24.03
2016-11-24T06:22:19.355Z,24.05
2016-11-24T06:23:19.673Z,24.05
2016-11-24T06:24:19.055Z,24.03
2016-11-24T06:25:19.693Z,23.98
2016-11-24T06:26:19.386Z,24.05
2016-11-24T06:27:19.441Z,23.98
2016-11-24T06:28:19.711Z,24.02
2016-11-24T06:29:20.559Z,24.08
2016-11-24T06:30:19.411Z,24.08
2016-11-24T06:31:19.734Z,24.03
2016-11-24T06:32:19.740Z,24.08
2016-11-24T06:33:19.120Z,23.94
2016-11-24T06:34:19.443Z,24.06
2016-11-24T06:35:19.139Z,24.06
2016-11-24T06:36:19.759Z,23.98
2016-11-24T06:37:19.147Z,23.98
2016-11-24T06:38:19.472Z,24.05
2016-11-24T06:39:19.471Z,24.03
2016-11-24T06:40:20.236Z,24.03
2016-11-24T06:41:19.803Z,23.95
2016-11-24T06:42:19.813Z,24.08
2016-11-24T06:43:19.552Z,24.06
2016-11-24T06:44:35.481Z,24.02
2016-11-24T06:45:19.519Z,24.12
2016-11-24T06:46:19.523Z,24.06
2016-11-24T06:47:19.220Z,24.1
2016-11-24T06:48:19.543Z,24.09
2016-11-24T06:49:19.650Z,24.06
2016-11-24T06:50:19.553Z,24.12
2016-11-24T06:51:19.997Z,24.12
2016-11-24T06:52:19.882Z,24.06
2016-11-24T06:53:19.312Z,24.06
2016-11-24T06:54:19.634Z,24.02
2016-11-24T06:55:19.644Z,24.05
2016-11-24T06:56:19.604Z,24.18
2016-11-24T06:57:19.918Z,24.18
2016-11-24T06:58:19.608Z,24.06
2016-11-24T06:59:19.941Z,24.1
2016-11-24T07:00:19.938Z,24.18
2016-11-24T07:01:19.324Z,24.18
2016-11-24T07:02:20.337Z,24.08
2016-11-24T07:03:19.649Z,24.13
2016-11-24T07:04:21.643Z,24.03
2016-11-24T07:05:19.450Z,24.09
2016-11-24T07:06:19.984Z,24.09
2016-11-24T07:07:19.402Z,24.18
2016-11-24T07:08:20.047Z,24.13
2016-11-24T07:09:19.691Z,24.12
2016-11-24T07:10:20.010Z,24.21
2016-11-24T07:11:19.703Z,24.1
2016-11-24T07:12:20.023Z,24.12
2016-11-24T07:13:20.071Z,24.16
2016-11-24T07:14:19.414Z,24.2
2016-11-24T07:15:19.738Z,24.22
2016-11-24T07:16:19.742Z,24.2
2016-11-24T07:17:19.747Z,24.21
2016-11-24T07:18:20.120Z,24.13
2016-11-24T07:19:19.445Z,24.09
2016-11-24T07:20:19.453Z,24.15
2016-11-24T07:21:19.877Z,24.13
2016-11-24T07:22:19.782Z,24.1
2016-11-24T07:23:19.477Z,24.13
2016-11-24T07:24:20.261Z,24.13
2016-11-24T07:25:19.805Z,24.06
2016-11-24T07:26:21.632Z,24.06
2016-11-24T07:27:20.183Z,24.13
2016-11-24T07:28:19.510Z,24.13
2016-11-24T07:29:20.142Z,24.24
2016-11-24T07:30:19.841Z,24.3
2016-11-24T07:31:20.166Z,24.52
2016-11-24T07:32:19.859Z,24.6
2016-11-24T07:33:19.546Z,24.91
2016-11-24T07:34:19.874Z,25.06
2016-11-24T07:35:19.722Z,25.23
2016-11-24T07:36:19.618Z,25.4
2016-11-24T07:37:21.302Z,25.5
2016-11-24T07:38:20.339Z,25.61
2016-11-24T07:39:20.139Z,25.8
2016-11-24T07:40:19.918Z,25.85
2016-11-24T07:41:20.228Z,26.07
2016-11-24T07:42:19.927Z,26.2
2016-11-24T07:43:19.931Z,26.26
2016-11-24T07:44:19.625Z,26.44
2016-11-24T07:45:19.946Z,26.52
2016-11-24T07:46:19.644Z,26.63
2016-11-24T07:47:20.273Z,26.75
2016-11-24T07:48:21.381Z,26.82
2016-11-24T07:49:20.343Z,26.82
2016-11-24T07:50:19.922Z,26.89
2016-11-24T07:51:19.990Z,26.84
2016-11-24T07:52:20.361Z,26.87
2016-11-24T07:53:20.315Z,26.89
2016-11-24T07:54:20.012Z,26.97
2016-11-24T07:55:20.017Z,27.03
2016-11-24T07:56:19.761Z,27.04
2016-11-24T07:57:19.719Z,27.06
2016-11-24T07:58:20.403Z,27.18
2016-11-24T07:59:21.013Z,27.12
2016-11-24T08:00:20.105Z,27.17
2016-11-24T08:01:20.163Z,27.25
2016-11-24T08:02:20.070Z,27.29
2016-11-24T08:03:20.388Z,27.31
2016-11-24T08:04:20.088Z,27.44
2016-11-24T08:05:19.831Z,27.43
2016-11-24T08:06:19.788Z,27.44
2016-11-24T08:07:20.104Z,27.5
2016-11-24T08:08:19.799Z,27.51
2016-11-24T08:09:20.123Z,27.57
2016-11-24T08:10:21.204Z,27.6
2016-11-24T08:11:20.148Z,27.55
2016-11-24T08:12:20.199Z,27.62
2016-11-24T08:13:20.528Z,27.59
2016-11-24T08:14:20.482Z,27.69
2016-11-24T08:15:20.163Z,27.69
2016-11-24T08:16:20.487Z,27.6
2016-11-24T08:17:20.493Z,27.62
2016-11-24T08:18:20.501Z,27.66
2016-11-24T08:19:19.938Z,27.65
2016-11-24T08:20:20.577Z,27.62
2016-11-24T08:21:20.745Z,27.69
2016-11-24T08:22:20.220Z,27.63
2016-11-24T08:23:20.230Z,27.66
2016-11-24T08:24:20.245Z,27.72
2016-11-24T08:25:21.253Z,27.7
2016-11-24T08:26:20.611Z,27.66
2016-11-24T08:27:20.577Z,27.67
2016-11-24T08:28:20.309Z,27.75
2016-11-24T08:29:20.283Z,27.63
2016-11-24T08:30:20.335Z,27.72
2016-11-24T08:31:19.998Z,27.62
2016-11-24T08:32:20.591Z,27.72
2016-11-24T08:33:20.611Z,27.69
2016-11-24T08:34:20.305Z,27.6
2016-11-24T08:35:20.624Z,27.62
2016-11-24T08:36:21.271Z,27.7
2016-11-24T08:37:20.381Z,27.66
2016-11-24T08:38:20.341Z,27.75
2016-11-24T08:39:20.354Z,27.7
2016-11-24T08:40:20.356Z,27.69
2016-11-24T08:41:20.732Z,27.75
2016-11-24T08:42:20.418Z,27.7
2016-11-24T08:43:20.690Z,27.82
2016-11-24T08:44:20.073Z,27.81
2016-11-24T08:45:20.462Z,27.77
2016-11-24T08:46:20.399Z,27.75
2016-11-24T08:47:21.032Z,27.77
2016-11-24T08:48:20.097Z,27.67
2016-11-24T08:49:20.470Z,27.67
2016-11-24T08:50:20.429Z,27.74
2016-11-24T08:51:20.751Z,27.67
2016-11-24T08:52:20.446Z,27.77
2016-11-24T08:53:20.138Z,27.75
2016-11-24T08:54:20.771Z,27.77
2016-11-24T08:55:20.216Z,27.66
2016-11-24T08:56:22.037Z,27.66
2016-11-24T08:57:20.799Z,27.69
2016-11-24T08:58:20.867Z,27.79
2016-11-24T08:59:20.812Z,27.67
2016-11-24T09:00:20.507Z,27.81
2016-11-24T09:01:20.523Z,27.74
2016-11-24T09:02:20.574Z,27.72
2016-11-24T09:03:20.532Z,27.67
2016-11-24T09:04:20.536Z,27.66
2016-11-24T09:05:20.865Z,27.72
2016-11-24T09:06:20.550Z,27.69
2016-11-24T09:07:21.461Z,27.7
2016-11-24T09:08:20.254Z,27.66
2016-11-24T09:09:20.673Z,27.66
2016-11-24T09:10:20.275Z,27.67
2016-11-24T09:11:22.055Z,27.74
2016-11-24T09:12:20.602Z,27.72
2016-11-24T09:13:20.292Z,27.66
2016-11-24T09:14:20.929Z,27.69
2016-11-24T09:15:20.634Z,27.75
2016-11-24T09:16:20.633Z,27.7
2016-11-24T09:17:20.687Z,27.72
2016-11-24T09:18:22.457Z,27.66
2016-11-24T09:19:21.016Z,27.67
2016-11-24T09:20:20.710Z,27.54
2016-11-24T09:21:20.359Z,27.51
2016-11-24T09:22:21.678Z,27.65
2016-11-24T09:23:20.994Z,27.55
2016-11-24T09:24:20.686Z,27.62
2016-11-24T09:25:20.706Z,27.65
2016-11-24T09:26:20.762Z,27.7
2016-11-24T09:27:21.027Z,27.66
2016-11-24T09:28:20.830Z,27.72
2016-11-24T09:29:20.424Z,27.77
2016-11-24T09:30:20.734Z,27.66
2016-11-24T09:31:20.534Z,27.66
2016-11-24T09:32:20.805Z,27.66
2016-11-24T09:33:21.850Z,27.63
2016-11-24T09:34:20.766Z,27.6
2016-11-24T09:35:20.773Z,27.74
2016-11-24T09:36:20.470Z,27.75
2016-11-24T09:37:21.105Z,27.62
2016-11-24T09:38:20.851Z,27.67
2016-11-24T09:39:20.808Z,27.66
2016-11-24T09:40:21.185Z,27.63
2016-11-24T09:41:21.133Z,27.6
2016-11-24T09:42:22.588Z,27.62
2016-11-24T09:43:20.838Z,27.6
2016-11-24T09:44:21.447Z,27.57
2016-11-24T09:45:20.900Z,27.6
2016-11-24T09:46:20.912Z,27.65
2016-11-24T09:47:21.234Z,27.66
2016-11-24T09:48:20.561Z,27.62
2016-11-24T09:49:20.569Z,27.75
2016-11-24T09:50:20.578Z,27.63
2016-11-24T09:51:21.264Z,27.69
2016-11-24T09:52:20.959Z,27.7
2016-11-24T09:53:20.605Z,27.74
2016-11-24T09:54:21.021Z,27.7
2016-11-24T09:55:21.632Z,27.7
2016-11-24T09:56:20.621Z,27.77
2016-11-24T09:57:20.947Z,27.75
2016-11-24T09:58:21.261Z,27.74
2016-11-24T09:59:20.962Z,27.75
2016-11-24T10:00:21.329Z,27.7
2016-11-24T10:01:20.663Z,27.84
2016-11-24T10:02:21.346Z,27.78
2016-11-24T10:03:21.303Z,27.75
2016-11-24T10:04:20.765Z,27.78
2016-11-24T10:05:21.002Z,27.75
2016-11-24T10:06:21.209Z,27.67
2016-11-24T10:07:21.335Z,27.72
2016-11-24T10:08:20.717Z,27.72
2016-11-24T10:09:20.755Z,27.67
2016-11-24T10:10:21.095Z,27.7
2016-11-24T10:11:21.413Z,27.67
2016-11-24T10:12:21.061Z,27.75
2016-11-24T10:13:21.126Z,27.7
2016-11-24T10:14:36.004Z,27.72
2016-11-24T10:15:21.080Z,27.63
2016-11-24T10:16:21.101Z,27.7
2016-11-24T10:17:21.447Z,27.67
2016-11-24T10:18:21.106Z,27.7
2016-11-24T10:19:22.795Z,27.67
2016-11-24T10:20:20.861Z,27.66
2016-11-24T10:21:21.134Z,27.65
2016-11-24T10:22:21.455Z,27.67
2016-11-24T10:23:20.833Z,27.74
2016-11-24T10:24:21.253Z,27.63
2016-11-24T10:25:21.162Z,27.69
2016-11-24T10:26:21.171Z,27.6
2016-11-24T10:27:21.226Z,27.69
2016-11-24T10:28:21.498Z,27.67
2016-11-24T10:29:20.883Z,27.7
2016-11-24T10:30:22.374Z,27.62
2016-11-24T10:31:20.895Z,27.66
2016-11-24T10:32:21.231Z,27.7
2016-11-24T10:33:21.537Z,27.63
2016-11-24T10:34:21.549Z,27.57
2016-11-24T10:35:21.293Z,27.62
2016-11-24T10:36:21.622Z,27.59
2016-11-24T10:37:21.311Z,27.55
2016-11-24T10:38:20.958Z,27.51
2016-11-24T10:39:21.588Z,27.5
2016-11-24T10:40:21.328Z,27.54
2016-11-24T10:41:22.483Z,27.51
2016-11-24T10:42:21.046Z,27.49
2016-11-24T10:43:21.771Z,27.65
2016-11-24T10:44:21.994Z,27.63
2016-11-24T10:45:22.011Z,27.65
2016-11-24T10:46:22.001Z,27.62
2016-11-24T10:47:21.647Z,27.62
2016-11-24T10:48:21.656Z,27.55
2016-11-24T10:49:21.428Z,27.6
2016-11-24T10:50:21.552Z,27.5
2016-11-24T10:51:21.673Z,27.55
2016-11-24T10:52:22.499Z,27.57
2016-11-24T10:53:22.033Z,27.59
2016-11-24T10:54:21.666Z,27.5
2016-11-24T10:55:21.545Z,27.57
2016-11-24T10:56:22.142Z,27.55
2016-11-24T10:57:21.417Z,27.5
2016-11-24T10:58:21.702Z,27.54
2016-11-24T10:59:21.786Z,27.4
2016-11-24T11:00:21.747Z,27.5
2016-11-24T11:01:21.993Z,27.54
2016-11-24T11:02:22.194Z,27.51
2016-11-24T11:03:22.706Z,27.43
2016-11-24T11:04:21.769Z,27.49
2016-11-24T11:05:22.032Z,27.54
2016-11-24T11:06:21.769Z,27.59
2016-11-24T11:07:22.159Z,27.47
2016-11-24T11:08:22.037Z,27.59
2016-11-24T11:09:21.479Z,27.54
2016-11-24T11:10:21.610Z,27.54
2016-11-24T11:11:22.174Z,27.51
2016-11-24T11:12:22.088Z,27.62
2016-11-24T11:13:21.841Z,27.54
2016-11-24T11:14:22.655Z,27.51
2016-11-24T11:15:21.863Z,27.6
2016-11-24T11:16:21.919Z,27.47
2016-11-24T11:17:21.571Z,27.65
2016-11-24T11:18:21.572Z,27.57
2016-11-24T11:19:21.269Z,27.65
2016-11-24T11:20:21.586Z,27.66
2016-11-24T11:21:21.909Z,27.65
2016-11-24T11:22:21.291Z,27.62
2016-11-24T11:23:21.923Z,27.51
2016-11-24T11:24:21.616Z,27.59
2016-11-24T11:25:22.590Z,27.59
2016-11-24T11:26:21.936Z,27.65
2016-11-24T11:27:21.961Z,27.75
2016-11-24T11:28:21.650Z,27.67
2016-11-24T11:29:21.972Z,27.74
2016-11-24T11:30:21.353Z,27.69
2016-11-24T11:31:22.036Z,27.6
2016-11-24T11:32:21.695Z,27.63
2016-11-24T11:33:21.380Z,27.67
2016-11-24T11:34:21.701Z,27.7
2016-11-24T11:35:21.756Z,27.63
2016-11-24T11:36:22.677Z,27.66
2016-11-24T11:37:21.723Z,27.72
2016-11-24T11:38:21.566Z,27.7
2016-11-24T11:39:21.736Z,27.7
2016-11-24T11:40:22.747Z,27.7
2016-11-24T11:41:22.115Z,27.69
2016-11-24T11:42:21.758Z,27.69
2016-11-24T11:43:22.110Z,27.63
2016-11-24T11:44:21.775Z,27.63
2016-11-24T11:45:22.098Z,27.62
2016-11-24T11:46:21.846Z,27.62
2016-11-24T11:47:22.110Z,27.66
2016-11-24T11:48:21.805Z,27.5
2016-11-24T11:49:21.874Z,27.62
2016-11-24T11:50:21.827Z,27.7
2016-11-24T11:51:22.233Z,27.62
2016-11-24T11:52:21.528Z,27.65
2016-11-24T11:53:22.158Z,27.66
2016-11-24T11:54:22.164Z,27.55
2016-11-24T11:55:21.862Z,27.5
2016-11-24T11:56:22.200Z,27.55
2016-11-24T11:57:22.194Z,27.49
2016-11-24T11:58:22.196Z,27.55
2016-11-24T11:59:22.208Z,27.59
2016-11-24T12:00:21.590Z,27.65
2016-11-24T12:01:22.224Z,27.55
2016-11-24T12:02:22.620Z,27.55
2016-11-24T12:03:21.613Z,27.55
2016-11-24T12:04:22.243Z,27.57
2016-11-24T12:05:22.255Z,27.5
2016-11-24T12:06:21.949Z,27.65
2016-11-24T12:07:21.959Z,27.54
2016-11-24T12:08:21.700Z,27.54
2016-11-24T12:09:22.342Z,27.51
2016-11-24T12:10:22.648Z,27.55
2016-11-24T12:11:23.743Z,27.57
2016-11-24T12:12:22.021Z,27.59
2016-11-24T12:13:22.489Z,27.55
2016-11-24T12:14:21.798Z,27.54
2016-11-24T12:15:22.303Z,27.59
2016-11-24T12:16:22.862Z,27.57
2016-11-24T12:17:22.602Z,27.59
2016-11-24T12:18:22.595Z,27.55
2016-11-24T12:19:22.395Z,27.63
2016-11-24T12:20:22.675Z,27.49
2016-11-24T12:21:22.064Z,27.46
2016-11-24T12:22:23.298Z,27.5
2016-11-24T12:23:22.492Z,27.54
2016-11-24T12:24:22.448Z,27.63
2016-11-24T12:25:22.734Z,27.55
2016-11-24T12:26:21.845Z,27.59
2016-11-24T12:27:22.116Z,27.5
2016-11-24T12:28:22.856Z,27.54
2016-11-24T12:29:21.852Z,27.5
2016-11-24T12:30:22.340Z,27.54
2016-11-24T12:31:22.774Z,27.51
2016-11-24T12:32:22.323Z,27.5
2016-11-24T12:33:23.915Z,27.47
2016-11-24T12:34:22.169Z,27.55
2016-11-24T12:35:22.492Z,27.46
2016-11-24T12:36:21.924Z,27.54
2016-11-24T12:37:23.495Z,27.59
2016-11-24T12:38:22.525Z,27.54
2016-11-24T12:39:22.823Z,27.5
2016-11-24T12:40:21.997Z,27.57
2016-11-24T12:41:22.659Z,27.54
2016-11-24T12:42:22.837Z,27.54
2016-11-24T12:43:22.533Z,27.51
2016-11-24T12:44:22.558Z,27.4
2016-11-24T12:45:22.553Z,27.39
2016-11-24T12:46:22.688Z,27.5
2016-11-24T12:47:22.606Z,27.44
2016-11-24T12:48:23.859Z,27.44
2016-11-24T12:49:23.035Z,27.46
2016-11-24T12:50:22.865Z,27.55
2016-11-24T12:51:22.043Z,27.54
2016-11-24T12:52:22.311Z,27.54
2016-11-24T12:53:22.319Z,27.55
2016-11-24T12:54:22.297Z,27.65
2016-11-24T12:55:22.338Z,27.7
2016-11-24T12:56:22.341Z,27.63
2016-11-24T12:57:22.348Z,27.54